Time;durP1;ratioP1;P1;durP2;ratioP2;P2;SDS_P1;SDS_P2;PMS_P1;PMS_P2;Temp;Humidity;BMP_temperature;BMP_pressure;BME280_temperature;BME280_humidity;BME280_pressure;Samples;Min_cycle;Max_cycle;Signal;HPM_P1;HPM_P2
2023/06/16 00:01:39;;;;;;;23.70;22.40;;;;;;;;;;5074847;28;20473;-81
2023/06/16 00:04:06;;;;;;;23.90;22.47;;;;;;;;;;5074364;28;20929;-81
2023/06/16 00:06:33;;;;;;;24.20;22.80;;;;;;;;;;5074819;28;20446;-81
2023/06/16 00:09:01;;;;;;;24.70;23.30;;;;;;;;;;5074530;28;20511;-82
2023/06/16 00:11:30;;;;;;;24.30;22.80;;;;;;;;;;5073421;28;20463;-82
2023/06/16 00:13:57;;;;;;;24.97;23.23;;;;;;;;;;5074076;28;20450;-82
2023/06/16 00:16:26;;;;;;;24.67;23.10;;;;;;;;;;5073717;28;20893;-82
2023/06/16 00:18:53;;;;;;;25.50;23.90;;;;;;;;;;5074229;28;20495;-82
2023/06/16 00:21:25;;;;;;;24.30;22.53;;;;;;;;;;5073835;28;20978;-82
2023/06/16 00:23:53;;;;;;;24.13;22.70;;;;;;;;;;5074164;28;20409;-83
2023/06/16 00:26:20;;;;;;;23.23;21.93;;;;;;;;;;5073691;28;20463;-82
2023/06/16 00:28:48;;;;;;;24.67;23.17;;;;;;;;;;5077945;28;20480;-81
2023/06/16 00:31:15;;;;;;;24.10;22.70;;;;;;;;;;5077268;28;20482;-81
2023/06/16 00:33:42;;;;;;;24.73;23.33;;;;;;;;;;5078601;28;20549;-80
2023/06/16 00:36:09;;;;;;;23.23;21.93;;;;;;;;;;5077783;28;20998;-81
2023/06/16 00:38:36;;;;;;;23.73;22.43;;;;;;;;;;5077885;28;20440;-81
2023/06/16 00:41:03;;;;;;;24.03;22.63;;;;;;;;;;5077272;28;20522;-80
2023/06/16 00:43:30;;;;;;;23.33;22.03;;;;;;;;;;5077622;28;20914;-81
2023/06/16 00:45:58;;;;;;;24.33;22.93;;;;;;;;;;5077534;28;20453;-81
2023/06/16 00:48:26;;;;;;;24.40;22.90;;;;;;;;;;5078084;28;20492;-80
2023/06/16 00:50:54;;;;;;;24.60;23.20;;;;;;;;;;5077646;28;20448;-79
2023/06/16 00:53:22;;;;;;;24.33;22.80;;;;;;;;;;5077700;28;20463;-81
2023/06/16 00:55:50;;;;;;;24.83;23.43;;;;;;;;;;5076673;28;20451;-81
2023/06/16 00:58:18;;;;;;;24.33;22.83;;;;;;;;;;5077502;28;20428;-81
2023/06/16 01:00:46;;;;;;;25.13;23.50;;;;;;;;;;5076451;28;20488;-81
2023/06/16 01:03:16;;;;;;;25.50;23.87;;;;;;;;;;5076804;28;20927;-79
2023/06/16 01:05:43;;;;;;;24.77;23.37;;;;;;;;;;5076659;28;20454;-80
2023/06/16 01:08:14;;;;;;;25.10;23.70;;;;;;;;;;5077324;28;20445;-81
2023/06/16 01:10:45;;;;;;;25.70;23.90;;;;;;;;;;5076395;28;20486;-81
2023/06/16 01:13:16;;;;;;;24.67;23.17;;;;;;;;;;5077079;28;20687;-81
2023/06/16 01:15:45;;;;;;;24.97;23.47;;;;;;;;;;5076654;28;20461;-81
2023/06/16 01:18:14;;;;;;;24.47;23.03;;;;;;;;;;5077492;28;20453;-80
2023/06/16 01:20:48;;;;;;;24.70;23.20;;;;;;;;;;5077072;28;20508;-80
2023/06/16 01:23:20;;;;;;;24.50;23.10;;;;;;;;;;5076455;28;20485;-82
2023/06/16 01:25:49;;;;;;;25.20;23.70;;;;;;;;;;5076404;28;20445;-79
2023/06/16 01:28:18;;;;;;;26.30;24.80;;;;;;;;;;5076817;28;20453;-81
2023/06/16 01:30:46;;;;;;;25.90;24.33;;;;;;;;;;5076806;28;20445;-81
2023/06/16 01:33:13;;;;;;;24.93;23.40;;;;;;;;;;5076622;28;20487;-80
2023/06/16 01:35:41;;;;;;;24.80;23.30;;;;;;;;;;5076433;28;20470;-81
2023/06/16 01:38:08;;;;;;;25.27;23.80;;;;;;;;;;5076059;28;20449;-81
2023/06/16 01:40:35;;;;;;;25.77;24.27;;;;;;;;;;5075461;28;20566;-81
2023/06/16 01:43:04;;;;;;;25.37;23.87;;;;;;;;;;5076765;28;20457;-81
2023/06/16 01:45:32;;;;;;;25.77;24.00;;;;;;;;;;5076421;28;20457;-81
2023/06/16 01:48:00;;;;;;;25.33;23.83;;;;;;;;;;5076416;28;20460;-81
2023/06/16 01:50:27;;;;;;;24.73;23.33;;;;;;;;;;5076609;28;20477;-80
2023/06/16 01:52:54;;;;;;;24.80;23.40;;;;;;;;;;5075579;28;20534;-80
2023/06/16 01:55:21;;;;;;;25.33;23.87;;;;;;;;;;5076427;28;20474;-81
2023/06/16 01:57:49;;;;;;;24.67;23.17;;;;;;;;;;5076263;28;20439;-80
2023/06/16 02:00:21;;;;;;;26.17;24.37;;;;;;;;;;5075676;28;20826;-80
2023/06/16 02:02:52;;;;;;;24.00;22.60;;;;;;;;;;5075632;28;20436;-81
2023/06/16 02:05:21;;;;;;;24.13;22.63;;;;;;;;;;5075224;28;20876;-81
2023/06/16 02:07:50;;;;;;;24.10;22.70;;;;;;;;;;5075006;28;20423;-81
2023/06/16 02:10:17;;;;;;;23.73;22.33;;;;;;;;;;5074703;28;20458;-79
2023/06/16 02:12:45;;;;;;;23.03;21.73;;;;;;;;;;5074855;28;21021;-80
2023/06/16 02:15:12;;;;;;;23.93;22.33;;;;;;;;;;5075165;28;20434;-80
2023/06/16 02:17:45;;;;;;;24.80;23.30;;;;;;;;;;5074577;28;20407;-80
2023/06/16 02:20:13;;;;;;;24.10;22.70;;;;;;;;;;5075132;28;20498;-80
2023/06/16 02:22:40;;;;;;;23.70;22.30;;;;;;;;;;5074408;28;20469;-81
2023/06/16 02:25:07;;;;;;;24.80;23.40;;;;;;;;;;5075097;28;20457;-81
2023/06/16 02:27:34;;;;;;;24.03;22.63;;;;;;;;;;5074581;28;20436;-80
2023/06/16 02:30:01;;;;;;;23.43;22.03;;;;;;;;;;5074877;28;20439;-80
2023/06/16 02:32:29;;;;;;;23.60;22.20;;;;;;;;;;5075162;28;20432;-80
2023/06/16 02:34:58;;;;;;;24.23;22.93;;;;;;;;;;5075337;28;20461;-80
2023/06/16 02:37:27;;;;;;;24.60;23.30;;;;;;;;;;5074424;28;20951;-80
2023/06/16 02:39:54;;;;;;;25.97;23.70;;;;;;;;;;5074278;28;20521;-80
2023/06/16 02:42:21;;;;;;;24.40;23.10;;;;;;;;;;5083970;28;20416;-79
2023/06/16 02:44:48;;;;;;;24.60;23.20;;;;;;;;;;5093239;28;20420;-79
2023/06/16 02:47:15;;;;;;;25.17;23.53;;;;;;;;;;5091949;28;20442;-79
2023/06/16 02:49:42;;;;;;;24.67;23.17;;;;;;;;;;5080984;28;20517;-80
2023/06/16 02:52:11;;;;;;;24.33;22.93;;;;;;;;;;5076125;28;20952;-82
2023/06/16 02:54:39;;;;;;;23.97;22.57;;;;;;;;;;5076383;28;20812;-82
2023/06/16 02:57:07;;;;;;;24.47;22.60;;;;;;;;;;5075683;28;20481;-81
2023/06/16 02:59:34;;;;;;;23.87;22.57;;;;;;;;;;5075720;28;20431;-81
2023/06/16 03:02:01;;;;;;;24.33;22.90;;;;;;;;;;5076331;28;20423;-81
2023/06/16 03:04:28;;;;;;;24.60;22.90;;;;;;;;;;5075892;28;20459;-81
2023/06/16 03:06:57;;;;;;;24.33;22.90;;;;;;;;;;5075414;28;20430;-81
2023/06/16 03:09:26;;;;;;;23.83;22.40;;;;;;;;;;5075810;28;20460;-81
2023/06/16 03:11:53;;;;;;;24.10;22.73;;;;;;;;;;5075172;28;21012;-81
2023/06/16 03:14:21;;;;;;;24.80;23.30;;;;;;;;;;5075525;28;20459;-81
2023/06/16 03:16:49;;;;;;;24.47;22.97;;;;;;;;;;5073861;28;20452;-81
2023/06/16 03:19:16;;;;;;;24.97;23.57;;;;;;;;;;5075009;28;20514;-81
2023/06/16 03:21:44;;;;;;;24.13;22.73;;;;;;;;;;5074283;28;20511;-81
2023/06/16 03:24:11;;;;;;;24.00;22.57;;;;;;;;;;5075311;28;20443;-81
2023/06/16 03:26:39;;;;;;;24.73;23.20;;;;;;;;;;5074855;28;20858;-82
2023/06/16 03:29:07;;;;;;;24.40;22.70;;;;;;;;;;5074795;28;20442;-81
2023/06/16 03:31:34;;;;;;;23.07;21.77;;;;;;;;;;5074692;28;20804;-80
2023/06/16 03:34:01;;;;;;;24.43;22.90;;;;;;;;;;5075876;28;20489;-81
2023/06/16 03:36:28;;;;;;;24.40;22.90;;;;;;;;;;5076085;28;20449;-81
2023/06/16 03:38:55;;;;;;;24.23;22.73;;;;;;;;;;5075261;28;20569;-80
2023/06/16 03:41:22;;;;;;;24.50;23.10;;;;;;;;;;5074695;28;20487;-81
2023/06/16 03:43:51;;;;;;;23.63;22.33;;;;;;;;;;5075286;28;20426;-81
2023/06/16 03:46:18;;;;;;;24.00;22.53;;;;;;;;;;5074161;28;20593;-81
2023/06/16 03:48:45;;;;;;;24.13;22.53;;;;;;;;;;5074875;28;20773;-80
2023/06/16 03:51:12;;;;;;;24.17;22.67;;;;;;;;;;5074799;28;20468;-80
2023/06/16 03:53:39;;;;;;;25.27;23.67;;;;;;;;;;5074848;28;20516;-81
2023/06/16 03:56:06;;;;;;;23.27;21.77;;;;;;;;;;5074296;28;20482;-80
2023/06/16 03:58:33;;;;;;;23.70;22.30;;;;;;;;;;5076542;28;20507;-81
2023/06/16 04:01:02;;;;;;;24.33;22.80;;;;;;;;;;5075463;28;20503;-80
2023/06/16 04:03:29;;;;;;;25.13;23.43;;;;;;;;;;5078639;28;20455;-81
2023/06/16 04:05:56;;;;;;;24.67;23.03;;;;;;;;;;5077965;28;20851;-81
2023/06/16 04:08:23;;;;;;;25.37;23.53;;;;;;;;;;5078575;28;20437;-79
2023/06/16 04:10:52;;;;;;;25.63;24.00;;;;;;;;;;5078331;28;20475;-80
2023/06/16 04:13:19;;;;;;;24.80;23.30;;;;;;;;;;5078599;28;20456;-81
2023/06/16 04:15:46;;;;;;;24.80;23.23;;;;;;;;;;5078120;28;20453;-80
2023/06/16 04:18:14;;;;;;;26.60;24.70;;;;;;;;;;5078151;28;20457;-81
2023/06/16 04:20:41;;;;;;;25.60;24.10;;;;;;;;;;5078241;28;20487;-81
2023/06/16 04:23:09;;;;;;;25.60;24.10;;;;;;;;;;5078388;28;20422;-81
2023/06/16 04:25:37;;;;;;;25.03;23.53;;;;;;;;;;5078184;28;20456;-81
2023/06/16 04:28:04;;;;;;;26.93;24.70;;;;;;;;;;5078486;28;20883;-81
2023/06/16 04:30:33;;;;;;;25.40;23.60;;;;;;;;;;5077687;28;20451;-82
2023/06/16 04:33:01;;;;;;;26.73;24.93;;;;;;;;;;5079108;28;20516;-80
2023/06/16 04:35:31;;;;;;;27.00;24.87;;;;;;;;;;5079465;28;20455;-82
2023/06/16 04:37:58;;;;;;;27.97;25.77;;;;;;;;;;5079163;28;20468;-81
2023/06/16 04:40:25;;;;;;;27.20;24.80;;;;;;;;;;5078267;28;20488;-81
2023/06/16 04:42:52;;;;;;;26.40;24.60;;;;;;;;;;5078338;28;20495;-82
2023/06/16 04:45:20;;;;;;;26.70;25.03;;;;;;;;;;5078904;28;20453;-81
2023/06/16 04:47:50;;;;;;;26.13;24.53;;;;;;;;;;5077895;28;20453;-81
2023/06/16 04:50:17;;;;;;;27.07;25.27;;;;;;;;;;5077805;28;20484;-80
2023/06/16 04:52:47;;;;;;;27.90;25.60;;;;;;;;;;5077893;28;20457;-81
2023/06/16 04:55:16;;;;;;;28.17;26.17;;;;;;;;;;5077754;28;20476;-81
2023/06/16 04:57:43;;;;;;;27.13;25.33;;;;;;;;;;5077379;28;20458;-81
2023/06/16 05:00:13;;;;;;;29.30;27.00;;;;;;;;;;5075739;28;21023;-81
2023/06/16 05:02:40;;;;;;;28.90;26.60;;;;;;;;;;5074069;28;20461;-80
2023/06/16 05:05:07;;;;;;;27.57;25.47;;;;;;;;;;5077051;28;20431;-80
2023/06/16 05:07:34;;;;;;;28.67;26.27;;;;;;;;;;5076691;28;20454;-81
2023/06/16 05:10:03;;;;;;;28.43;26.10;;;;;;;;;;5077077;28;20492;-81
2023/06/16 05:12:30;;;;;;;27.93;25.97;;;;;;;;;;5076340;28;20465;-80
2023/06/16 05:14:57;;;;;;;27.73;25.83;;;;;;;;;;5077880;28;20453;-80
2023/06/16 05:17:24;;;;;;;28.60;26.30;;;;;;;;;;5076569;28;20451;-81
2023/06/16 05:19:51;;;;;;;28.20;26.30;;;;;;;;;;5078214;28;20457;-81
2023/06/16 05:22:23;;;;;;;27.27;25.37;;;;;;;;;;5078382;28;20972;-80
2023/06/16 05:24:50;;;;;;;29.27;26.87;;;;;;;;;;5078362;28;20431;-81
2023/06/16 05:27:28;;;;;;;28.47;26.47;;;;;;;;;;5076390;28;20465;-81
2023/06/16 05:29:56;;;;;;;28.70;26.80;;;;;;;;;;5077811;28;20443;-81
2023/06/16 05:32:23;;;;;;;30.80;28.43;;;;;;;;;;5076461;28;20412;-80
2023/06/16 05:34:51;;;;;;;28.60;26.50;;;;;;;;;;5077228;28;20489;-81
2023/06/16 05:37:18;;;;;;;30.90;27.87;;;;;;;;;;5079683;28;20455;-80
2023/06/16 05:39:46;;;;;;;28.30;26.30;;;;;;;;;;5077270;28;20460;-81
2023/06/16 05:42:14;;;;;;;29.67;27.47;;;;;;;;;;5077702;28;20444;-81
2023/06/16 05:44:42;;;;;;;29.70;27.20;;;;;;;;;;5077268;28;20467;-81
2023/06/16 05:47:10;;;;;;;29.70;27.20;;;;;;;;;;5076707;28;20821;-81
2023/06/16 05:49:37;;;;;;;29.60;27.30;;;;;;;;;;5077343;28;20472;-82
2023/06/16 05:52:05;;;;;;;28.27;26.37;;;;;;;;;;5076662;28;20490;-81
2023/06/16 05:54:32;;;;;;;27.90;26.00;;;;;;;;;;5076895;28;20500;-81
2023/06/16 05:56:59;;;;;;;28.40;26.47;;;;;;;;;;5076149;28;20423;-80
2023/06/16 05:59:26;;;;;;;27.87;25.50;;;;;;;;;;5076128;28;20423;-80
2023/06/16 06:01:55;;;;;;;28.60;26.50;;;;;;;;;;5075201;28;20444;-80
2023/06/16 06:04:22;;;;;;;30.20;26.97;;;;;;;;;;5076014;28;20429;-81
2023/06/16 06:06:49;;;;;;;29.37;27.30;;;;;;;;;;5075900;28;20446;-80
2023/06/16 06:09:16;;;;;;;29.60;27.17;;;;;;;;;;5075911;28;20427;-80
2023/06/16 06:11:43;;;;;;;28.53;26.40;;;;;;;;;;5077043;28;20490;-81
2023/06/16 06:14:11;;;;;;;29.27;27.27;;;;;;;;;;5077368;28;20484;-81
2023/06/16 06:16:38;;;;;;;30.30;27.80;;;;;;;;;;5076658;28;20496;-80
2023/06/16 06:19:06;;;;;;;29.70;27.30;;;;;;;;;;5075947;28;20466;-80
2023/06/16 06:21:35;;;;;;;28.80;26.60;;;;;;;;;;5074835;28;20460;-79
2023/06/16 06:24:03;;;;;;;30.73;28.03;;;;;;;;;;5056137;28;20457;-80
2023/06/16 06:26:30;;;;;;;30.17;27.80;;;;;;;;;;5074549;28;20907;-80
2023/06/16 06:28:57;;;;;;;29.80;27.60;;;;;;;;;;5075333;28;20457;-81
2023/06/16 06:31:24;;;;;;;29.57;27.40;;;;;;;;;;5074611;28;20503;-81
2023/06/16 06:33:51;;;;;;;28.47;26.67;;;;;;;;;;5076029;28;21025;-82
2023/06/16 06:36:26;;;;;;;29.00;26.90;;;;;;;;;;5074700;28;20484;-81
2023/06/16 06:38:53;;;;;;;28.63;26.57;;;;;;;;;;5075863;28;20544;-81
2023/06/16 06:41:21;;;;;;;28.63;26.70;;;;;;;;;;5076946;28;20497;-82
2023/06/16 06:43:48;;;;;;;29.33;27.13;;;;;;;;;;5077487;28;20453;-82
2023/06/16 06:46:15;;;;;;;29.57;27.40;;;;;;;;;;5076659;28;20412;-81
2023/06/16 06:48:42;;;;;;;29.63;27.53;;;;;;;;;;5076644;28;20459;-81
2023/06/16 06:51:09;;;;;;;29.00;26.97;;;;;;;;;;5075868;28;21043;-81
2023/06/16 06:53:37;;;;;;;28.83;26.60;;;;;;;;;;5076521;28;20449;-80
2023/06/16 06:56:05;;;;;;;29.60;27.27;;;;;;;;;;5073944;28;20844;-81
2023/06/16 06:58:32;;;;;;;30.40;27.53;;;;;;;;;;5074611;28;20445;-80
2023/06/16 07:00:59;;;;;;;31.17;28.97;;;;;;;;;;5074733;28;20465;-80
2023/06/16 07:03:27;;;;;;;29.70;27.60;;;;;;;;;;5075055;28;20449;-81
2023/06/16 07:05:54;;;;;;;30.10;27.97;;;;;;;;;;5075300;28;20488;-82
2023/06/16 07:08:21;;;;;;;28.10;26.10;;;;;;;;;;5077479;28;20524;-82
2023/06/16 07:10:49;;;;;;;28.70;26.60;;;;;;;;;;5077795;28;20543;-82
2023/06/16 07:13:16;;;;;;;29.00;27.03;;;;;;;;;;5076056;28;20442;-82
2023/06/16 07:15:43;;;;;;;29.77;27.57;;;;;;;;;;5075698;28;20880;-81
2023/06/16 07:18:10;;;;;;;28.57;26.53;;;;;;;;;;5075562;28;20930;-81
2023/06/16 07:20:37;;;;;;;28.67;26.60;;;;;;;;;;5074913;28;20492;-82
2023/06/16 07:23:04;;;;;;;29.23;27.07;;;;;;;;;;5075813;28;20429;-81
2023/06/16 07:25:36;;;;;;;29.40;27.50;;;;;;;;;;5076554;28;20755;-80
2023/06/16 07:28:04;;;;;;;30.80;28.50;;;;;;;;;;5076806;28;20499;-83
2023/06/16 07:30:31;;;;;;;31.17;28.50;;;;;;;;;;5076561;28;20451;-81
2023/06/16 07:32:58;;;;;;;29.50;27.60;;;;;;;;;;5077426;28;20417;-81
2023/06/16 07:35:25;;;;;;;28.40;26.60;;;;;;;;;;5078036;28;20968;-81
2023/06/16 07:37:52;;;;;;;29.53;27.63;;;;;;;;;;5078743;28;20420;-81
2023/06/16 07:40:20;;;;;;;30.13;27.83;;;;;;;;;;5077331;28;20478;-83
2023/06/16 07:42:46;;;;;;;29.23;26.97;;;;;;;;;;5075682;28;20509;-83
2023/06/16 07:45:17;;;;;;;28.63;26.53;;;;;;;;;;5077763;28;20442;-82
2023/06/16 07:47:46;;;;;;;28.30;26.50;;;;;;;;;;5078156;28;20463;-84
2023/06/16 07:50:15;;;;;;;28.03;26.33;;;;;;;;;;5078020;28;20554;-81
2023/06/16 07:52:42;;;;;;;29.07;27.17;;;;;;;;;;5077797;28;20463;-80
2023/06/16 07:55:11;;;;;;;29.17;27.27;;;;;;;;;;5079803;28;20481;-82
2023/06/16 07:57:39;;;;;;;29.47;27.53;;;;;;;;;;5081899;28;20457;-84
2023/06/16 08:00:10;;;;;;;27.80;26.10;;;;;;;;;;5078706;28;20470;-79
2023/06/16 08:02:38;;;;;;;28.57;26.73;;;;;;;;;;5085175;28;20508;-82
2023/06/16 08:05:06;;;;;;;28.60;26.80;;;;;;;;;;5085558;28;20961;-79
2023/06/16 08:07:33;;;;;;;29.17;27.37;;;;;;;;;;5087634;28;20438;-84
2023/06/16 08:10:00;;;;;;;29.33;27.23;;;;;;;;;;5086464;28;20472;-80
2023/06/16 08:12:28;;;;;;;28.73;26.90;;;;;;;;;;5087499;28;20527;-78
2023/06/16 08:14:55;;;;;;;28.47;26.60;;;;;;;;;;5074451;28;20470;-79
2023/06/16 08:17:22;;;;;;;29.27;27.47;;;;;;;;;;5073335;28;20504;-79
2023/06/16 08:19:50;;;;;;;28.40;26.60;;;;;;;;;;5092421;28;20468;-81
2023/06/16 08:22:17;;;;;;;29.10;27.10;;;;;;;;;;5104586;28;20448;-79
2023/06/16 08:24:44;;;;;;;28.57;26.70;;;;;;;;;;5103492;28;20544;-79
2023/06/16 08:27:11;;;;;;;29.10;26.97;;;;;;;;;;5103726;28;20404;-80
2023/06/16 08:29:39;;;;;;;28.33;26.03;;;;;;;;;;5103030;28;20461;-84
2023/06/16 08:32:07;;;;;;;28.70;26.80;;;;;;;;;;5102730;28;20433;-79
2023/06/16 08:34:35;;;;;;;28.00;26.30;;;;;;;;;;5102371;28;20451;-80
2023/06/16 08:37:04;;;;;;;28.97;27.00;;;;;;;;;;5094562;28;20412;-79
2023/06/16 08:39:31;;;;;;;28.73;26.70;;;;;;;;;;5094297;28;21010;-80
2023/06/16 08:41:59;;;;;;;30.10;28.00;;;;;;;;;;5094151;28;20415;-79
2023/06/16 08:44:27;;;;;;;29.67;27.80;;;;;;;;;;5094060;28;20498;-79
2023/06/16 08:46:56;;;;;;;29.70;27.80;;;;;;;;;;5094090;28;20400;-81
2023/06/16 08:49:23;;;;;;;30.00;28.00;;;;;;;;;;5096557;28;21043;-82
2023/06/16 08:51:51;;;;;;;29.30;27.37;;;;;;;;;;5097867;28;20476;-82
2023/06/16 08:54:21;;;;;;;31.03;29.13;;;;;;;;;;5097852;28;20772;-83
2023/06/16 08:56:51;;;;;;;30.03;28.27;;;;;;;;;;5097462;28;20419;-83
2023/06/16 08:59:19;;;;;;;29.47;27.57;;;;;;;;;;5096840;28;21008;-81
2023/06/16 09:01:46;;;;;;;29.30;27.50;;;;;;;;;;5097424;28;20461;-81
2023/06/16 09:04:13;;;;;;;27.17;25.47;;;;;;;;;;5097522;28;20483;-82
2023/06/16 09:06:45;;;;;;;28.63;26.63;;;;;;;;;;5097192;28;20459;-83
2023/06/16 09:09:13;;;;;;;29.00;27.10;;;;;;;;;;5097134;28;20449;-82
2023/06/16 09:11:42;;;;;;;28.83;26.93;;;;;;;;;;5097570;28;20825;-82
2023/06/16 09:14:13;;;;;;;28.40;26.50;;;;;;;;;;5097346;28;20442;-82
2023/06/16 09:16:40;;;;;;;27.97;26.17;;;;;;;;;;5097490;28;20477;-81
2023/06/16 09:19:08;;;;;;;27.70;25.97;;;;;;;;;;5097084;28;20447;-82
2023/06/16 09:21:35;;;;;;;27.70;25.77;;;;;;;;;;5097124;28;20444;-82
2023/06/16 09:24:03;;;;;;;27.90;25.93;;;;;;;;;;5097270;28;20920;-83
2023/06/16 09:26:35;;;;;;;27.33;25.53;;;;;;;;;;5097121;28;20494;-82
2023/06/16 09:29:12;;;;;;;26.87;25.23;;;;;;;;;;5097847;28;20433;-82
2023/06/16 09:31:39;;;;;;;27.50;25.80;;;;;;;;;;5097981;28;20435;-82
2023/06/16 09:34:06;;;;;;;28.17;26.17;;;;;;;;;;5097277;28;20847;-82
2023/06/16 09:36:33;;;;;;;27.20;25.50;;;;;;;;;;5096882;28;20484;-82
2023/06/16 09:39:01;;;;;;;26.60;24.90;;;;;;;;;;5097410;28;20510;-83
2023/06/16 09:41:28;;;;;;;26.40;24.80;;;;;;;;;;5096427;28;20580;-81
2023/06/16 09:43:59;;;;;;;28.10;26.20;;;;;;;;;;5097366;28;20449;-82
2023/06/16 09:46:28;;;;;;;28.57;26.00;;;;;;;;;;5097365;28;20811;-82
2023/06/16 09:48:55;;;;;;;25.50;23.80;;;;;;;;;;5097306;28;20424;-83
2023/06/16 09:51:23;;;;;;;26.30;24.60;;;;;;;;;;5096621;28;20459;-81
2023/06/16 09:53:51;;;;;;;25.57;24.07;;;;;;;;;;5096673;28;20490;-83
2023/06/16 09:56:19;;;;;;;26.70;25.00;;;;;;;;;;5096043;28;20466;-82
2023/06/16 09:58:46;;;;;;;26.13;24.50;;;;;;;;;;5098678;28;20483;-84
2023/06/16 10:01:14;;;;;;;26.07;24.40;;;;;;;;;;5096157;28;20481;-82
2023/06/16 10:03:43;;;;;;;26.77;25.17;;;;;;;;;;5096789;28;20532;-81
2023/06/16 10:06:13;;;;;;;26.27;24.43;;;;;;;;;;5095200;28;20510;-79
2023/06/16 10:08:40;;;;;;;26.37;24.67;;;;;;;;;;5095631;28;20494;-81
2023/06/16 10:11:09;;;;;;;25.73;24.10;;;;;;;;;;5095933;28;20556;-80
2023/06/16 10:13:36;;;;;;;26.03;24.53;;;;;;;;;;5095944;28;20510;-81
2023/06/16 10:16:05;;;;;;;26.03;24.53;;;;;;;;;;5095471;28;20476;-80
2023/06/16 10:18:33;;;;;;;27.37;25.27;;;;;;;;;;5096016;28;20476;-79
2023/06/16 10:21:03;;;;;;;27.23;25.63;;;;;;;;;;5095795;28;20461;-80
2023/06/16 10:23:30;;;;;;;27.50;25.67;;;;;;;;;;5096419;28;20513;-81
2023/06/16 10:25:57;;;;;;;27.67;26.07;;;;;;;;;;5095315;28;20439;-81
2023/06/16 10:28:24;;;;;;;27.10;25.50;;;;;;;;;;5096204;28;20481;-80
2023/06/16 10:30:52;;;;;;;26.67;25.17;;;;;;;;;;5095790;28;21014;-82
2023/06/16 10:33:19;;;;;;;26.90;25.20;;;;;;;;;;5096211;28;20477;-82
2023/06/16 10:35:53;;;;;;;25.53;23.73;;;;;;;;;;5095725;28;20809;-88
2023/06/16 10:38:24;;;;;;;27.50;25.80;;;;;;;;;;5096509;28;20837;-81
2023/06/16 10:40:55;;;;;;;26.07;24.47;;;;;;;;;;5095613;28;20550;-81
2023/06/16 10:43:26;;;;;;;27.47;25.23;;;;;;;;;;5096229;28;20407;-78
2023/06/16 10:46:08;;;;;;;26.50;24.80;;;;;;;;;;5095647;28;20447;-80
2023/06/16 10:48:56;;;;;;;26.73;25.13;;;;;;;;;;5095590;28;20418;-80
2023/06/16 10:51:37;;;;;;;27.20;25.50;;;;;;;;;;5095292;28;20512;-81
2023/06/16 10:54:08;;;;;;;26.60;25.07;;;;;;;;;;5104694;28;20498;-81
2023/06/16 10:57:00;;;;;;;26.10;24.50;;;;;;;;;;5096827;28;20765;-81
2023/06/16 10:59:27;;;;;;;25.83;24.23;;;;;;;;;;5098612;28;20425;-83
2023/06/16 11:01:57;;;;;;;26.97;25.20;;;;;;;;;;5096543;28;20498;-83
2023/06/16 11:04:24;;;;;;;27.37;25.67;;;;;;;;;;5096382;28;20423;-82
2023/06/16 11:07:11;;;;;;;26.37;24.77;;;;;;;;;;5095800;28;20415;-80
2023/06/16 11:09:39;;;;;;;27.00;25.40;;;;;;;;;;5095044;28;20472;-80
2023/06/16 11:12:07;;;;;;;26.50;24.73;;;;;;;;;;5097197;28;20856;-80
2023/06/16 11:14:35;;;;;;;26.90;25.30;;;;;;;;;;5096292;28;20777;-80
2023/06/16 11:17:03;;;;;;;26.40;24.80;;;;;;;;;;5095158;28;20563;-80
2023/06/16 11:19:30;;;;;;;27.33;25.63;;;;;;;;;;5095084;28;20475;-81
2023/06/16 11:22:00;;;;;;;26.40;24.80;;;;;;;;;;5096427;28;20456;-81
2023/06/16 11:24:31;;;;;;;27.57;25.67;;;;;;;;;;5096204;28;20570;-81
2023/06/16 11:27:00;;;;;;;26.43;24.83;;;;;;;;;;5095733;28;20404;-80
2023/06/16 11:29:27;;;;;;;26.83;25.07;;;;;;;;;;5095748;28;20455;-80
2023/06/16 11:31:54;;;;;;;26.33;24.73;;;;;;;;;;5097098;28;20469;-81
2023/06/16 11:34:23;;;;;;;26.20;24.70;;;;;;;;;;5096639;28;20453;-80
2023/06/16 11:36:51;;;;;;;27.40;25.60;;;;;;;;;;5095435;28;20484;-80
2023/06/16 11:39:18;;;;;;;27.17;25.57;;;;;;;;;;5095612;28;20435;-81
2023/06/16 11:41:45;;;;;;;28.10;26.20;;;;;;;;;;5095520;28;20455;-85
2023/06/16 11:44:15;;;;;;;27.07;25.30;;;;;;;;;;5096919;28;20415;-80
2023/06/16 11:46:42;;;;;;;27.90;26.07;;;;;;;;;;5095198;28;20440;-80
2023/06/16 11:49:09;;;;;;;26.40;24.70;;;;;;;;;;5095104;28;20472;-81
2023/06/16 11:51:36;;;;;;;27.37;25.67;;;;;;;;;;5094036;28;20447;-81
2023/06/16 11:54:03;;;;;;;27.27;25.60;;;;;;;;;;5095975;28;20459;-81
2023/06/16 11:56:33;;;;;;;27.53;25.83;;;;;;;;;;5095148;28;20864;-81
2023/06/16 11:59:03;;;;;;;26.10;24.40;;;;;;;;;;5095551;28;20865;-80
2023/06/16 12:01:31;;;;;;;27.90;26.10;;;;;;;;;;5095149;28;20473;-80
2023/06/16 12:03:58;;;;;;;27.87;26.17;;;;;;;;;;5096305;28;20446;-82
2023/06/16 12:06:27;;;;;;;27.27;25.67;;;;;;;;;;5093173;28;20436;-83
2023/06/16 12:08:59;;;;;;;28.03;26.33;;;;;;;;;;5075850;28;20446;-86
2023/06/16 12:11:28;;;;;;;28.23;26.33;;;;;;;;;;5074531;28;20444;-82
2023/06/16 12:13:55;;;;;;;28.50;26.43;;;;;;;;;;5073911;28;20480;-77
2023/06/16 12:16:23;;;;;;;28.27;26.57;;;;;;;;;;5072843;28;20525;-77
2023/06/16 12:18:52;;;;;;;27.90;26.20;;;;;;;;;;5072157;28;20444;-78
2023/06/16 12:21:20;;;;;;;27.20;25.27;;;;;;;;;;5073265;28;21018;-78
2023/06/16 12:23:53;;;;;;;27.50;25.73;;;;;;;;;;5077341;28;20926;-78
2023/06/16 12:26:27;;;;;;;28.40;26.53;;;;;;;;;;5077368;28;20445;-78
2023/06/16 12:28:55;;;;;;;28.57;26.73;;;;;;;;;;5075304;28;20931;-77
2023/06/16 12:31:26;;;;;;;28.00;26.30;;;;;;;;;;5076605;28;20460;-78
2023/06/16 12:33:54;;;;;;;27.30;25.50;;;;;;;;;;5077270;28;20430;-77
2023/06/16 12:36:21;;;;;;;28.90;27.10;;;;;;;;;;5077240;28;20460;-78
2023/06/16 12:38:48;;;;;;;28.90;27.00;;;;;;;;;;5077683;28;20441;-78
2023/06/16 12:41:16;;;;;;;29.20;27.40;;;;;;;;;;5076933;28;20460;-78
2023/06/16 12:43:46;;;;;;;28.03;26.33;;;;;;;;;;5077273;28;20446;-80
2023/06/16 12:46:13;;;;;;;28.63;26.93;;;;;;;;;;5077294;28;20805;-78
2023/06/16 12:48:40;;;;;;;28.97;27.17;;;;;;;;;;5077523;28;20453;-79
2023/06/16 12:51:09;;;;;;;28.80;27.10;;;;;;;;;;5077017;28;20524;-77
2023/06/16 12:53:40;;;;;;;27.97;26.27;;;;;;;;;;5077482;28;20449;-78
2023/06/16 12:56:09;;;;;;;27.70;25.90;;;;;;;;;;5076770;28;20444;-77
2023/06/16 12:58:36;;;;;;;27.33;25.73;;;;;;;;;;5076278;28;20497;-77
2023/06/16 13:01:03;;;;;;;27.43;25.43;;;;;;;;;;5076152;28;20565;-80
2023/06/16 13:03:30;;;;;;;27.67;25.87;;;;;;;;;;5075872;28;20428;-78
2023/06/16 13:05:57;;;;;;;27.20;25.60;;;;;;;;;;5076336;28;20440;-76
2023/06/16 13:08:26;;;;;;;27.40;25.27;;;;;;;;;;5077063;28;20476;-78
2023/06/16 13:10:53;;;;;;;27.50;25.70;;;;;;;;;;5076211;28;20460;-76
2023/06/16 13:13:20;;;;;;;28.47;26.67;;;;;;;;;;5076759;28;20424;-78
2023/06/16 13:15:47;;;;;;;28.67;26.83;;;;;;;;;;5076244;28;20462;-78
2023/06/16 13:18:14;;;;;;;27.57;25.87;;;;;;;;;;5076550;28;20984;-77
2023/06/16 13:20:41;;;;;;;28.03;26.20;;;;;;;;;;5076040;28;20972;-78
2023/06/16 13:23:08;;;;;;;28.37;26.47;;;;;;;;;;5076593;28;20757;-78
2023/06/16 13:25:36;;;;;;;28.10;26.23;;;;;;;;;;5076214;28;20420;-77
2023/06/16 13:28:03;;;;;;;27.50;25.80;;;;;;;;;;5076503;28;20508;-77
2023/06/16 13:30:30;;;;;;;28.77;26.97;;;;;;;;;;5076029;28;20456;-77
2023/06/16 13:32:57;;;;;;;27.33;25.43;;;;;;;;;;5076110;28;20597;-78
2023/06/16 13:35:24;;;;;;;26.60;25.00;;;;;;;;;;5075803;28;20441;-76
2023/06/16 13:37:51;;;;;;;27.20;25.47;;;;;;;;;;5075222;28;20452;-77
2023/06/16 13:40:19;;;;;;;27.63;25.50;;;;;;;;;;5074745;28;20493;-77
2023/06/16 13:42:47;;;;;;;27.73;26.03;;;;;;;;;;5076517;28;20428;-77
2023/06/16 13:45:14;;;;;;;28.57;26.50;;;;;;;;;;5075570;28;20454;-77
2023/06/16 13:47:41;;;;;;;28.40;26.50;;;;;;;;;;5074989;28;20454;-77
2023/06/16 13:50:09;;;;;;;27.53;25.87;;;;;;;;;;5073705;28;20523;-83
2023/06/16 13:52:37;;;;;;;27.37;25.67;;;;;;;;;;5057984;28;20550;-84
2023/06/16 13:55:04;;;;;;;27.90;25.93;;;;;;;;;;5057841;28;20917;-84
2023/06/16 13:57:31;;;;;;;27.70;25.90;;;;;;;;;;5057663;28;20479;-84
2023/06/16 13:59:59;;;;;;;28.03;25.90;;;;;;;;;;5057030;28;20470;-86
2023/06/16 14:02:26;;;;;;;27.60;25.90;;;;;;;;;;5073893;28;20508;-83
2023/06/16 14:04:53;;;;;;;28.07;25.97;;;;;;;;;;5077667;28;20412;-84
2023/06/16 14:07:21;;;;;;;27.03;25.33;;;;;;;;;;5081406;28;20442;-86
2023/06/16 14:09:50;;;;;;;27.23;25.30;;;;;;;;;;5097366;28;20859;-84
2023/06/16 14:12:17;;;;;;;26.63;25.03;;;;;;;;;;5081815;28;20551;-83
2023/06/16 14:14:45;;;;;;;27.00;25.40;;;;;;;;;;5076049;28;20420;-79
2023/06/16 14:17:13;;;;;;;27.27;25.37;;;;;;;;;;5074793;28;20488;-77
2023/06/16 14:19:40;;;;;;;26.73;25.10;;;;;;;;;;5075780;28;20436;-76
2023/06/16 14:22:07;;;;;;;27.20;25.40;;;;;;;;;;5075505;28;20449;-78